Time;durP1;ratioP1;P1;durP2;ratioP2;P2;SDS_P1;SDS_P2;PMS_P1;PMS_P2;Temp;Humidity;BMP_temperature;BMP_pressure;BME280_temperature;BME280_humidity;BME280_pressure;Samples;Min_cycle;Max_cycle;Signal;HPM_P1;HPM_P2
2021/06/28 00:00:42;;;;;;;10.70;9.48;;;20.00;81.10;;;;;;5051176;28;20755;-77
2021/06/28 00:03:08;;;;;;;12.90;9.30;;;20.20;79.60;;;;;;5050750;28;20377;-76
2021/06/28 00:05:33;;;;;;;11.33;8.70;;;20.20;80.20;;;;;;5052162;28;20475;-76
2021/06/28 00:07:59;;;;;;;10.93;8.90;;;20.00;81.60;;;;;;5067006;28;20385;-76
2021/06/28 00:10:27;;;;;;;12.10;10.57;;;19.80;83.80;;;;;;5054203;28;20882;-78
2021/06/28 00:12:54;;;;;;;10.93;9.55;;;19.80;85.20;;;;;;5052549;28;20405;-77
2021/06/28 00:15:25;;;;;;;11.30;10.10;;;20.00;84.50;;;;;;5051633;28;20373;-77
2021/06/28 00:17:51;;;;;;;12.20;9.30;;;20.00;84.50;;;;;;5056551;28;20385;-78
2021/06/28 00:20:18;;;;;;;11.95;9.80;;;19.90;86.90;;;;;;5045448;28;20437;-78
2021/06/28 00:22:45;;;;;;;11.65;9.85;;;19.80;86.60;;;;;;5044636;28;20383;-77
2021/06/28 00:25:13;;;;;;;11.18;9.00;;;19.70;86.70;;;;;;5038185;28;20571;-78
2021/06/28 00:27:41;;;;;;;11.25;9.65;;;19.60;87.40;;;;;;5050243;28;20879;-78
2021/06/28 00:30:08;;;;;;;11.98;10.30;;;19.60;87.90;;;;;;5053987;28;20476;-78
2021/06/28 00:32:35;;;;;;;11.52;9.30;;;19.50;88.20;;;;;;5051213;28;20420;-78
2021/06/28 00:35:01;;;;;;;11.70;9.30;;;19.50;88.70;;;;;;5054426;28;20402;-78
2021/06/28 00:37:26;;;;;;;12.50;9.90;;;19.50;89.50;;;;;;5054393;28;20384;-77
2021/06/28 00:39:52;;;;;;;12.53;10.60;;;19.50;89.40;;;;;;5054315;28;20405;-77
2021/06/28 00:42:18;;;;;;;11.90;10.10;;;19.50;89.20;;;;;;5035470;28;20418;-77
2021/06/28 00:44:44;;;;;;;11.05;9.73;;;19.30;90.10;;;;;;5038037;28;20864;-77
2021/06/28 00:47:09;;;;;;;12.40;9.93;;;19.20;90.80;;;;;;5047039;28;20398;-77
2021/06/28 00:49:36;;;;;;;14.20;10.07;;;19.20;91.80;;;;;;5049923;28;20443;-77
2021/06/28 00:52:01;;;;;;;12.25;9.98;;;19.20;91.30;;;;;;5054706;28;20389;-77
2021/06/28 00:54:27;;;;;;;12.43;9.82;;;19.20;93.20;;;;;;5055424;28;20400;-78
2021/06/28 00:56:53;;;;;;;14.57;10.10;;;19.20;92.10;;;;;;5057059;28;20420;-78
2021/06/28 00:59:20;;;;;;;10.87;9.37;;;19.40;90.70;;;;;;5057429;28;20389;-77
2021/06/28 01:01:46;;;;;;;13.40;9.93;;;19.30;89.90;;;;;;5055639;28;20450;-77
2021/06/28 01:04:11;;;;;;;12.47;10.50;;;19.30;91.30;;;;;;5056190;28;20386;-77
2021/06/28 01:06:37;;;;;;;12.48;9.98;;;19.20;92.20;;;;;;5055672;28;20418;-76
2021/06/28 01:09:03;;;;;;;12.07;9.90;;;19.20;93.30;;;;;;5055035;28;20755;-77
2021/06/28 01:11:29;;;;;;;12.18;10.50;;;19.00;95.00;;;;;;5056800;28;20428;-76
2021/06/28 01:13:55;;;;;;;12.88;10.57;;;18.90;96.90;;;;;;5056585;28;20381;-78
2021/06/28 01:16:22;;;;;;;15.15;10.98;;;18.80;97.50;;;;;;5047584;28;20403;-77
2021/06/28 01:18:47;;;;;;;12.00;10.80;;;18.70;98.30;;;;;;5040073;28;20394;-76
2021/06/28 01:21:14;;;;;;;12.10;10.57;;;18.60;99.50;;;;;;5045060;28;20820;-77
2021/06/28 01:23:40;;;;;;;14.20;10.90;;;18.50;99.90;;;;;;5058880;28;20401;-76
2021/06/28 01:26:09;;;;;;;13.20;10.83;;;18.50;99.90;;;;;;5064829;28;20384;-76
2021/06/28 01:28:36;;;;;;;14.23;11.13;;;18.40;99.90;;;;;;5072655;28;20404;-76
2021/06/28 01:31:04;;;;;;;12.85;11.32;;;18.40;99.90;;;;;;5071480;28;20408;-77
2021/06/28 01:33:30;;;;;;;13.75;11.43;;;18.30;99.90;;;;;;5054620;28;20398;-77
2021/06/28 01:35:56;;;;;;;13.95;11.55;;;18.30;99.90;;;;;;5053282;28;20476;-76
2021/06/28 01:38:21;;;;;;;13.50;11.20;;;18.30;99.90;;;;;;5043488;28;20457;-78
2021/06/28 01:40:47;;;;;;;16.63;11.90;;;18.30;99.90;;;;;;5037787;28;20478;-77
2021/06/28 01:43:13;;;;;;;17.60;12.13;;;18.20;99.90;;;;;;5060932;28;20393;-77
2021/06/28 01:45:39;;;;;;;12.50;11.20;;;18.20;99.90;;;;;;5074149;28;20449;-77
2021/06/28 01:48:06;;;;;;;15.30;11.73;;;18.30;99.90;;;;;;5074888;28;20369;-77
2021/06/28 01:50:34;;;;;;;15.30;11.43;;;18.20;99.90;;;;;;5066458;28;20728;-77
2021/06/28 01:53:01;;;;;;;15.57;12.15;;;18.20;99.90;;;;;;5054948;28;20857;-77
2021/06/28 01:55:27;;;;;;;15.98;11.52;;;18.10;99.90;;;;;;5066941;28;20420;-77
2021/06/28 01:57:56;;;;;;;17.52;12.00;;;18.10;99.90;;;;;;5066493;28;20394;-78
2021/06/28 02:00:31;;;;;;;15.60;11.45;;;18.30;99.90;;;;;;5067796;28;20512;-77
2021/06/28 02:03:06;;;;;;;15.20;11.68;;;18.30;99.90;;;;;;5076073;28;20507;-79
2021/06/28 02:05:57;;;;;;;16.65;12.50;;;18.20;99.90;;;;;;5077024;28;20365;-79
2021/06/28 02:08:27;;;;;;;19.67;13.50;;;18.10;99.90;;;;;;5053889;28;20438;-77
2021/06/28 02:11:02;;;;;;;20.00;13.30;;;18.10;99.90;;;;;;5050760;28;20406;-75
2021/06/28 02:13:31;;;;;;;15.75;12.40;;;18.10;99.90;;;;;;5051757;28;20402;-76
2021/06/28 02:15:57;;;;;;;18.38;12.98;;;18.00;99.90;;;;;;5050798;28;20390;-76
2021/06/28 02:18:24;;;;;;;17.10;12.87;;;18.00;99.90;;;;;;5051941;28;20381;-76
2021/06/28 02:20:58;;;;;;;16.30;12.43;;;18.10;99.90;;;;;;5032104;28;20407;-77
2021/06/28 02:23:35;;;;;;;16.52;13.27;;;18.10;99.90;;;;;;5040423;28;20400;-76
2021/06/28 02:26:03;;;;;;;17.25;12.60;;;18.10;99.90;;;;;;5035643;28;20537;-76
2021/06/28 02:28:33;;;;;;;15.52;12.65;;;18.10;99.90;;;;;;5031716;28;20745;-77
2021/06/28 02:31:00;;;;;;;16.20;13.70;;;18.00;99.90;;;;;;5032332;28;20451;-77
2021/06/28 02:33:26;;;;;;;16.90;13.45;;;18.00;99.90;;;;;;5045903;28;20828;-76
2021/06/28 02:35:52;;;;;;;17.10;12.60;;;18.00;99.90;;;;;;5052245;28;20419;-74
2021/06/28 02:38:18;;;;;;;17.75;13.52;;;18.00;99.90;;;;;;5053775;28;20421;-78
2021/06/28 02:40:44;;;;;;;18.27;13.60;;;17.90;99.90;;;;;;5033419;28;20422;-78
2021/06/28 02:43:10;;;;;;;19.10;14.35;;;17.90;99.90;;;;;;5033378;28;20461;-77
2021/06/28 02:45:36;;;;;;;18.35;13.40;;;17.90;99.90;;;;;;5047872;28;20618;-77
2021/06/28 02:48:02;;;;;;;16.83;13.05;;;18.00;99.90;;;;;;5051656;28;20413;-78
2021/06/28 02:50:28;;;;;;;14.93;13.15;;;17.90;99.90;;;;;;5064467;28;20780;-78
2021/06/28 02:52:54;;;;;;;18.25;13.05;;;17.90;99.90;;;;;;5072002;28;20489;-78
2021/06/28 02:55:19;;;;;;;16.58;13.80;;;17.80;99.90;;;;;;5042979;28;20402;-77
2021/06/28 02:57:45;;;;;;;18.45;14.23;;;17.90;99.90;;;;;;5052619;28;20855;-79
2021/06/28 03:00:14;;;;;;;16.70;13.60;;;17.80;99.90;;;;;;5061035;28;20405;-78
2021/06/28 03:02:40;;;;;;;18.73;14.70;;;17.80;99.90;;;;;;5080299;28;20441;-78
2021/06/28 03:05:08;;;;;;;18.25;13.93;;;17.90;99.90;;;;;;5057126;28;20409;-78
2021/06/28 03:07:34;;;;;;;17.00;13.60;;;17.90;99.90;;;;;;5056229;28;20411;-78
2021/06/28 03:10:00;;;;;;;17.17;13.68;;;18.20;99.90;;;;;;5062334;28;20401;-78
2021/06/28 03:12:26;;;;;;;15.35;13.07;;;18.30;99.90;;;;;;5066043;28;20393;-79
2021/06/28 03:14:53;;;;;;;18.03;14.07;;;18.10;99.90;;;;;;5068633;28;20413;-77
2021/06/28 03:17:18;;;;;;;16.60;13.90;;;17.90;99.90;;;;;;5065149;28;20406;-77
2021/06/28 03:19:44;;;;;;;17.13;14.43;;;17.90;99.90;;;;;;5045909;28;20411;-78
2021/06/28 03:22:10;;;;;;;20.05;14.60;;;17.90;99.90;;;;;;5036982;28;20399;-78
2021/06/28 03:24:35;;;;;;;27.60;15.10;;;17.90;99.90;;;;;;5054873;23;20439;-73
2021/06/28 03:27:01;;;;;;;17.67;14.23;;;17.70;99.90;;;;;;5031844;28;20391;-73
2021/06/28 03:29:27;;;;;;;17.63;14.13;;;17.60;99.90;;;;;;5032265;28;20379;-74
2021/06/28 03:31:52;;;;;;;19.25;15.32;;;17.60;99.90;;;;;;5031672;28;20717;-72
2021/06/28 03:34:18;;;;;;;23.40;16.53;;;17.70;99.90;;;;;;5031633;28;20383;-73
2021/06/28 03:36:43;;;;;;;18.93;14.40;;;18.00;99.90;;;;;;5030759;28;20391;-72
2021/06/28 03:39:10;;;;;;;18.30;14.93;;;18.20;99.90;;;;;;5031367;28;20426;-72
2021/06/28 03:41:36;;;;;;;21.77;16.00;;;18.30;99.90;;;;;;5032278;28;20407;-73
2021/06/28 03:44:03;;;;;;;23.20;15.95;;;18.20;99.90;;;;;;5032720;28;20379;-73
2021/06/28 03:46:28;;;;;;;21.40;15.57;;;17.90;99.90;;;;;;5032394;28;20807;-73
2021/06/28 03:48:54;;;;;;;21.08;16.02;;;17.80;99.90;;;;;;5032020;28;20391;-73
2021/06/28 03:51:20;;;;;;;17.40;14.10;;;17.90;99.90;;;;;;5018531;28;20405;-73
2021/06/28 03:53:46;;;;;;;17.47;14.70;;;18.10;99.90;;;;;;5019154;28;20494;-74
2021/06/28 03:56:13;;;;;;;19.50;14.73;;;18.00;99.90;;;;;;5031558;28;20467;-73
2021/06/28 03:58:39;;;;;;;19.23;15.45;;;17.80;99.90;;;;;;5031772;28;20486;-73
2021/06/28 04:01:06;;;;;;;20.00;16.17;;;17.70;99.90;;;;;;5031387;28;20494;-73
2021/06/28 04:03:34;;;;;;;22.17;16.20;;;17.70;99.90;;;;;;5018924;28;20387;-73
2021/06/28 04:06:04;;;;;;;21.45;16.77;;;17.70;99.90;;;;;;5031427;28;20922;-73
2021/06/28 04:08:34;;;;;;;17.70;15.55;;;17.80;99.90;;;;;;5031412;28;20391;-73
2021/06/28 04:11:00;;;;;;;21.48;16.98;;;17.80;99.90;;;;;;5029608;28;20911;-72
2021/06/28 04:13:25;;;;;;;20.92;16.25;;;17.90;99.90;;;;;;5030762;28;20737;-71
2021/06/28 04:15:52;;;;;;;18.60;15.00;;;17.80;99.90;;;;;;5012511;28;20407;-72
2021/06/28 04:18:18;;;;;;;22.75;16.90;;;17.90;99.90;;;;;;5021278;28;20879;-72
2021/06/28 04:20:44;;;;;;;21.42;16.00;;;18.00;99.90;;;;;;5031667;28;20406;-72
2021/06/28 04:23:09;;;;;;;21.98;15.85;;;18.00;99.90;;;;;;5030467;28;20387;-71
2021/06/28 04:25:35;;;;;;;23.80;16.55;;;18.30;99.90;;;;;;5029922;28;20910;-72
2021/06/28 04:28:01;;;;;;;23.38;15.98;;;18.40;99.90;;;;;;5027504;28;20918;-72
2021/06/28 04:30:27;;;;;;;20.57;15.97;;;18.30;99.90;;;;;;5018315;28;20431;-72
2021/06/28 04:32:52;;;;;;;18.07;15.20;;;18.40;99.90;;;;;;5014574;28;20479;-72
2021/06/28 04:35:24;;;;;;;22.33;16.67;;;18.50;99.90;;;;;;5010786;28;20420;-72
2021/06/28 04:37:51;;;;;;;454.80;341.70;;;18.40;99.90;;;;;;5010603;28;20404;-72
2021/06/28 04:40:19;;;;;;;99.50;66.32;;;18.50;99.90;;;;;;5013000;28;20501;-72
2021/06/28 04:42:46;;;;;;;48.42;33.20;;;18.60;99.90;;;;;;5030092;28;20383;-73
2021/06/28 04:45:13;;;;;;;52.75;38.25;;;18.80;99.90;;;;;;5027975;28;20412;-73
2021/06/28 04:47:39;;;;;;;26.30;19.88;;;18.80;99.90;;;;;;5028465;28;20468;-74
2021/06/28 04:50:06;;;;;;;32.58;24.33;;;18.90;99.90;;;;;;5030055;28;20386;-72
2021/06/28 04:52:33;;;;;;;29.80;21.63;;;19.00;99.90;;;;;;5030143;28;20417;-72
2021/06/28 04:55:01;;;;;;;53.60;36.17;;;19.10;99.90;;;;;;5030108;28;20875;-72
2021/06/28 04:57:27;;;;;;;43.70;33.03;;;19.20;99.90;;;;;;5025036;28;20419;-73
2021/06/28 04:59:53;;;;;;;38.58;27.05;;;19.30;99.90;;;;;;5011832;28;20772;-73
2021/06/28 05:02:18;;;;;;;28.58;20.45;;;19.40;99.90;;;;;;5030069;28;20910;-72
2021/06/28 05:04:44;;;;;;;39.77;31.97;;;19.60;99.90;;;;;;5025704;28;20403;-72
2021/06/28 05:07:10;;;;;;;27.05;20.70;;;19.60;99.90;;;;;;5025172;28;20473;-71
2021/06/28 05:09:35;;;;;;;33.60;25.10;;;19.90;99.90;;;;;;5028986;28;20395;-71
2021/06/28 05:12:02;;;;;;;21.70;17.20;;;20.10;99.90;;;;;;5020713;28;20712;-70
2021/06/28 05:14:27;;;;;;;23.58;17.77;;;20.30;96.70;;;;;;5027893;28;20456;-70
2021/06/28 05:16:53;;;;;;;22.73;18.17;;;20.30;97.50;;;;;;5028258;28;20375;-72
2021/06/28 05:19:19;;;;;;;22.70;18.27;;;20.30;97.00;;;;;;5022820;28;20415;-72
2021/06/28 05:21:44;;;;;;;23.77;16.47;;;20.40;96.00;;;;;;5008501;28;21133;-72
2021/06/28 05:24:10;;;;;;;22.10;16.70;;;20.40;97.40;;;;;;5023147;28;20407;-72
2021/06/28 05:26:36;;;;;;;25.95;19.10;;;20.60;95.10;;;;;;5022548;28;20420;-73
2021/06/28 05:29:01;;;;;;;21.10;16.98;;;20.60;94.90;;;;;;5019269;28;20482;-72
2021/06/28 05:31:27;;;;;;;23.00;17.20;;;20.60;94.60;;;;;;5032322;28;20401;-72
2021/06/28 05:33:53;;;;;;;25.97;19.40;;;20.70;94.20;;;;;;5033048;28;20453;-72
2021/06/28 05:36:20;;;;;;;23.52;19.00;;;20.70;93.50;;;;;;5020910;28;20397;-71
2021/06/28 05:38:46;;;;;;;20.37;16.33;;;20.70;92.60;;;;;;5023135;28;20505;-71
2021/06/28 05:41:11;;;;;;;20.03;17.07;;;20.80;91.00;;;;;;5019930;28;20541;-71
2021/06/28 05:43:37;;;;;;;22.35;15.98;;;20.90;91.30;;;;;;5023714;28;20464;-71
2021/06/28 05:46:03;;;;;;;23.30;18.40;;;21.00;90.10;;;;;;5018755;28;20393;-72
2021/06/28 05:48:28;;;;;;;35.60;27.30;;;21.00;90.50;;;;;;5025223;28;20448;-72
2021/06/28 05:50:54;;;;;;;32.15;24.52;;;21.10;88.60;;;;;;5025114;28;20474;-72
2021/06/28 05:53:19;;;;;;;26.60;20.17;;;21.20;87.40;;;;;;5033470;28;20578;-74
2021/06/28 05:55:45;;;;;;;21.45;17.27;;;21.20;86.20;;;;;;5030752;28;20402;-74
2021/06/28 05:58:12;;;;;;;23.87;18.53;;;21.30;85.40;;;;;;5031877;28;20469;-74
2021/06/28 06:00:38;;;;;;;30.45;19.73;;;21.30;84.70;;;;;;5013527;28;20412;-74
2021/06/28 06:03:04;;;;;;;24.30;17.90;;;21.40;85.00;;;;;;5027646;28;20407;-74
2021/06/28 06:05:30;;;;;;;21.67;17.30;;;21.50;84.30;;;;;;5024948;28;20411;-74
2021/06/28 06:07:55;;;;;;;22.57;17.93;;;21.50;84.30;;;;;;5032932;28;20434;-74
2021/06/28 06:10:21;;;;;;;22.67;18.23;;;21.60;82.10;;;;;;5022281;28;20443;-74
2021/06/28 06:12:47;;;;;;;26.10;18.10;;;21.60;81.20;;;;;;5029686;28;20911;-73
2021/06/28 06:15:14;;;;;;;20.98;18.08;;;21.60;80.40;;;;;;5028778;28;20418;-77
2021/06/28 06:17:40;;;;;;;20.83;16.40;;;21.50;81.10;;;;;;5029656;28;20445;-77
2021/06/28 06:20:08;;;;;;;25.60;16.30;;;21.50;82.00;;;;;;5039061;28;20403;-77
2021/06/28 06:22:34;;;;;;;19.88;16.70;;;21.50;82.30;;;;;;5040736;28;20410;-77
2021/06/28 06:25:00;;;;;;;24.45;18.00;;;21.60;81.60;;;;;;5036655;28;20453;-75
2021/06/28 06:27:25;;;;;;;26.63;18.13;;;21.70;81.60;;;;;;5032138;28;20406;-75
2021/06/28 06:29:51;;;;;;;21.50;17.20;;;21.70;81.00;;;;;;5028511;28;20411;-77
2021/06/28 06:32:17;;;;;;;18.98;15.80;;;21.80;81.20;;;;;;5027415;28;20493;-76
2021/06/28 06:34:42;;;;;;;19.20;15.40;;;21.90;81.80;;;;;;5029507;28;20831;-76
2021/06/28 06:37:08;;;;;;;20.97;16.70;;;22.00;79.70;;;;;;5028730;28;20397;-77
2021/06/28 06:39:34;;;;;;;24.17;16.92;;;22.10;77.40;;;;;;5016515;28;20746;-76
2021/06/28 06:42:00;;;;;;;19.80;15.50;;;22.30;74.10;;;;;;5028726;28;20471;-76
2021/06/28 06:44:26;;;;;;;21.52;15.73;;;22.40;74.30;;;;;;5031385;28;20527;-76
2021/06/28 06:46:52;;;;;;;21.38;15.60;;;22.40;74.20;;;;;;5020985;28;20414;-75
2021/06/28 06:49:17;;;;;;;19.75;15.27;;;22.50;73.60;;;;;;5026391;28;20401;-75
2021/06/28 06:51:43;;;;;;;20.77;15.80;;;22.70;69.00;;;;;;5020250;28;20505;-75
2021/06/28 06:54:12;;;;;;;17.38;15.15;;;22.70;67.90;;;;;;5026712;28;20953;-74
2021/06/28 06:56:39;;;;;;;17.20;15.05;;;22.80;68.60;;;;;;5016802;28;20399;-73
2021/06/28 06:59:05;;;;;;;19.10;15.07;;;23.00;67.90;;;;;;5015079;28;20404;-72
2021/06/28 07:01:34;;;;;;;20.35;15.10;;;23.20;66.90;;;;;;5029945;28;20407;-72
2021/06/28 07:04:00;;;;;;;18.05;14.38;;;23.50;63.60;;;;;;5015413;28;20389;-73
2021/06/28 07:06:26;;;;;;;24.05;15.10;;;23.60;60.30;;;;;;5012567;28;20530;-74
2021/06/28 07:08:52;;;;;;;16.30;14.20;;;23.70;58.50;;;;;;5020438;28;20477;-76
2021/06/28 07:11:18;;;;;;;16.97;14.63;;;23.80;56.50;;;;;;5030496;28;20406;-75
2021/06/28 07:13:44;;;;;;;15.98;13.10;;;24.10;54.20;;;;;;5033901;28;20382;-76
2021/06/28 07:16:10;;;;;;;19.57;13.50;;;24.20;49.20;;;;;;5032717;28;20422;-76
2021/06/28 07:18:36;;;;;;;15.45;12.68;;;24.40;47.90;;;;;;5031170;28;20395;-76
2021/06/28 07:21:03;;;;;;;15.80;14.00;;;24.40;44.30;;;;;;5031729;28;20413;-76
2021/06/28 07:23:31;;;;;;;16.00;14.27;;;24.50;43.60;;;;;;5029792;28;20422;-77
2021/06/28 07:25:57;;;;;;;15.20;13.60;;;24.60;43.50;;;;;;5024200;28;20725;-76
2021/06/28 07:28:23;;;;;;;16.65;13.73;;;24.70;43.70;;;;;;5026296;28;20391;-76
2021/06/28 07:30:49;;;;;;;15.90;13.95;;;24.90;41.90;;;;;;5030107;28;20430;-76
2021/06/28 07:33:14;;;;;;;16.60;13.37;;;25.10;41.30;;;;;;5031657;28;20395;-76
2021/06/28 07:35:40;;;;;;;15.60;13.17;;;25.30;39.80;;;;;;5033363;28;20398;-79
2021/06/28 07:38:06;;;;;;;15.07;12.50;;;25.80;38.00;;;;;;5028909;28;20395;-78
2021/06/28 07:40:31;;;;;;;13.90;12.40;;;26.10;36.30;;;;;;5028228;28;20411;-77
2021/06/28 07:42:57;;;;;;;14.88;12.80;;;26.40;34.70;;;;;;5023741;28;20415;-77
2021/06/28 07:45:24;;;;;;;14.80;13.20;;;26.30;34.60;;;;;;5032401;28;20395;-76
2021/06/28 07:47:49;;;;;;;17.08;13.30;;;26.20;34.50;;;;;;5029373;28;20486;-75
2021/06/28 07:50:16;;;;;;;15.50;12.90;;;26.10;35.50;;;;;;5025903;28;20967;-76
2021/06/28 07:52:42;;;;;;;15.23;12.63;;;26.10;35.70;;;;;;5029979;28;20514;-76
2021/06/28 07:55:10;;;;;;;15.88;12.70;;;26.00;35.60;;;;;;5033117;28;20406;-76
2021/06/28 07:57:36;;;;;;;14.27;12.77;;;25.90;35.10;;;;;;5024433;28;20407;-76
2021/06/28 08:00:14;;;;;;;14.25;12.75;;;25.80;35.80;;;;;;5029528;28;20414;-76
2021/06/28 08:02:40;;;;;;;14.55;12.18;;;25.80;36.00;;;;;;5026867;28;20441;-75
2021/06/28 08:05:07;;;;;;;17.63;12.68;;;25.90;35.50;;;;;;5030042;28;20391;-74
2021/06/28 08:07:33;;;;;;;14.35;12.02;;;25.90;36.00;;;;;;5025514;28;20403;-71
2021/06/28 08:09:58;;;;;;;12.60;11.30;;;25.90;35.90;;;;;;5026891;28;20774;-75
2021/06/28 08:12:24;;;;;;;15.93;12.43;;;26.00;35.00;;;;;;5022807;28;20417;-73
2021/06/28 08:14:50;;;;;;;13.85;12.30;;;25.90;33.80;;;;;;5028722;28;20857;-75
2021/06/28 08:17:16;;;;;;;14.85;12.82;;;25.80;34.70;;;;;;5023306;28;20923;-76
2021/06/28 08:19:44;;;;;;;15.87;12.27;;;25.70;35.30;;;;;;5029007;28;20436;-76
2021/06/28 08:22:10;;;;;;;14.73;12.02;;;25.70;36.10;;;;;;5030181;28;20482;-76
2021/06/28 08:24:36;;;;;;;14.90;12.20;;;25.70;35.90;;;;;;5029953;28;20687;-73
2021/06/28 08:27:02;;;;;;;14.95;12.48;;;25.60;34.70;;;;;;5030085;28;20410;-73
2021/06/28 08:29:28;;;;;;;16.58;12.93;;;25.70;35.00;;;;;;5028438;28;20448;-72
2021/06/28 08:31:53;;;;;;;14.32;11.38;;;25.80;35.10;;;;;;5029590;28;20407;-73
2021/06/28 08:34:19;;;;;;;12.30;11.10;;;25.60;34.90;;;;;;5030196;28;20395;-72
2021/06/28 08:36:46;;;;;;;12.30;10.70;;;25.70;34.90;;;;;;5030682;28;20724;-73
2021/06/28 08:39:17;;;;;;;13.52;11.20;;;25.70;33.80;;;;;;5030361;28;20406;-73
2021/06/28 08:41:46;;;;;;;15.95;11.30;;;25.80;33.20;;;;;;5029696;28;21049;-73
2021/06/28 08:44:12;;;;;;;12.52;10.75;;;26.10;32.90;;;;;;5027689;28;20392;-73
2021/06/28 08:46:38;;;;;;;12.07;10.57;;;26.40;32.20;;;;;;5030392;28;20518;-73
2021/06/28 08:49:05;;;;;;;13.25;11.07;;;26.80;29.10;;;;;;5029877;28;20756;-73
2021/06/28 08:51:31;;;;;;;12.93;11.63;;;27.00;28.90;;;;;;5030772;28;20395;-74
2021/06/28 08:53:57;;;;;;;14.25;10.13;;;27.10;27.60;;;;;;5029646;28;20394;-73
2021/06/28 08:56:24;;;;;;;11.30;10.27;;;27.40;27.30;;;;;;5030068;28;20482;-74
2021/06/28 08:58:49;;;;;;;12.10;10.80;;;27.80;26.10;;;;;;5030327;28;20406;-72
2021/06/28 09:01:15;;;;;;;12.15;10.95;;;27.90;25.90;;;;;;5030633;28;20407;-72
2021/06/28 09:03:41;;;;;;;12.38;10.73;;;28.00;26.40;;;;;;5029470;28;20768;-72
2021/06/28 09:06:07;;;;;;;12.63;11.33;;;28.20;26.10;;;;;;5031961;28;20879;-72
2021/06/28 09:08:37;;;;;;;14.60;10.13;;;28.40;25.00;;;;;;5033790;28;20407;-72
2021/06/28 09:11:03;;;;;;;13.77;10.27;;;28.50;23.60;;;;;;5032861;28;20433;-72
2021/06/28 09:13:43;;;;;;;12.25;10.43;;;28.60;23.40;;;;;;5033216;28;20484;-74
2021/06/28 09:16:13;;;;;;;12.18;10.45;;;28.80;23.00;;;;;;5034198;28;20394;-71
2021/06/28 09:19:10;;;;;;;11.20;10.10;;;28.90;22.90;;;;;;5032902;28;20399;-73
2021/06/28 09:21:42;;;;;;;11.77;10.67;;;28.90;21.50;;;;;;5033936;28;20403;-72
2021/06/28 09:24:36;;;;;;;11.52;10.38;;;29.00;22.60;;;;;;5052088;22;20433;-76
2021/06/28 09:27:25;;;;;;;10.90;9.90;;;28.60;21.70;;;;;;5056124;28;20488;-76
2021/06/28 09:29:54;;;;;;;10.63;9.63;;;28.20;22.30;;;;;;5041151;28;20988;-74
2021/06/28 09:32:22;;;;;;;11.43;10.20;;;28.00;23.40;;;;;;5038383;28;20465;-75
2021/06/28 09:34:50;;;;;;;12.60;9.70;;;28.00;23.80;;;;;;5035774;28;20391;-75
2021/06/28 09:37:18;;;;;;;9.90;9.00;;;28.00;23.70;;;;;;5035253;28;20720;-75
2021/06/28 09:39:49;;;;;;;10.23;9.27;;;28.30;22.40;;;;;;5033989;28;20527;-76
2021/06/28 09:42:17;;;;;;;10.80;9.70;;;28.30;21.80;;;;;;5034091;28;20391;-76
2021/06/28 09:45:09;;;;;;;11.02;9.88;;;28.40;21.30;;;;;;5032981;28;20445;-76
2021/06/28 09:47:35;;;;;;;12.95;8.80;;;28.50;21.40;;;;;;5035641;28;20394;-75
2021/06/28 09:50:07;;;;;;;10.90;9.90;;;28.60;20.90;;;;;;5052538;28;20428;-75
2021/06/28 09:52:49;;;;;;;10.00;8.70;;;28.90;20.60;;;;;;5050358;28;20386;-77
2021/06/28 09:55:18;;;;;;;11.25;8.80;;;29.30;19.80;;;;;;5032931;28;20395;-77
2021/06/28 09:58:03;;;;;;;8.98;8.18;;;29.20;19.00;;;;;;5033047;28;20399;-76
2021/06/28 10:00:29;;;;;;;9.10;8.25;;;29.30;18.90;;;;;;5033053;28;20402;-76
2021/06/28 10:02:54;;;;;;;8.63;7.77;;;29.40;18.80;;;;;;5032226;28;20898;-74
2021/06/28 10:05:23;;;;;;;9.50;8.18;;;29.50;17.70;;;;;;5043668;28;20422;-75
2021/06/28 10:07:49;;;;;;;9.82;8.70;;;29.50;17.90;;;;;;5035310;28;20746;-75
2021/06/28 10:10:29;;;;;;;15.90;10.93;;;29.50;18.60;;;;;;5052801;28;20393;-75
2021/06/28 10:12:58;;;;;;;13.07;11.20;;;29.50;19.00;;;;;;5051961;28;20401;-76
2021/06/28 10:15:36;;;;;;;11.90;10.70;;;29.70;18.80;;;;;;5040991;28;20528;-75
2021/06/28 10:18:02;;;;;;;11.30;10.20;;;29.70;18.60;;;;;;5031342;28;20394;-75
2021/06/28 10:20:31;;;;;;;11.77;9.35;;;29.60;18.70;;;;;;5032156;28;20421;-75
2021/06/28 10:22:57;;;;;;;9.80;8.80;;;29.50;18.70;;;;;;5035696;28;20904;-75
2021/06/28 10:25:25;;;;;;;10.70;9.60;;;29.40;18.80;;;;;;5040822;28;20725;-75
2021/06/28 10:27:52;;;;;;;11.10;9.00;;;29.40;18.20;;;;;;5037760;28;20800;-74
2021/06/28 10:30:20;;;;;;;10.15;9.02;;;29.40;18.80;;;;;;5040871;28;20395;-75
2021/06/28 10:32:49;;;;;;;10.40;9.40;;;29.50;18.70;;;;;;5034711;28;20391;-76
2021/06/28 10:35:23;;;;;;;12.95;10.43;;;29.80;18.40;;;;;;5040164;28;20420;-76
2021/06/28 10:37:48;;;;;;;11.38;10.25;;;29.60;17.90;;;;;;5032009;28;20457;-75
2021/06/28 10:40:20;;;;;;;11.67;10.47;;;29.50;18.40;;;;;;5032505;28;20418;-76
2021/06/28 10:42:52;;;;;;;13.32;11.30;;;29.30;18.90;;;;;;5031745;28;20403;-76
2021/06/28 10:45:40;;;;;;;14.27;11.65;;;28.90;19.50;;;;;;5031935;28;20395;-76
2021/06/28 10:48:17;;;;;;;14.48;11.57;;;28.90;19.30;;;;;;5032302;28;20444;-75
2021/06/28 10:50:54;;;;;;;13.57;11.20;;;29.00;20.00;;;;;;5032592;28;20387;-76
2021/06/28 10:53:42;;;;;;;13.23;11.82;;;29.40;19.50;;;;;;5044946;28;20494;-76
2021/06/28 10:56:33;;;;;;;14.32;12.70;;;30.00;19.10;;;;;;5032050;28;20847;-74
2021/06/28 10:59:02;;;;;;;21.13;16.38;;;30.60;18.10;;;;;;5031755;28;20866;-75
2021/06/28 11:01:36;;;;;;;12.65;11.20;;;30.80;16.70;;;;;;5031642;28;20399;-75
2021/06/28 11:04:06;;;;;;;13.23;10.90;;;30.90;16.90;;;;;;5032229;28;20403;-75
2021/06/28 11:06:32;;;;;;;16.10;11.27;;;30.80;16.60;;;;;;5041713;28;20755;-75
2021/06/28 11:09:09;;;;;;;12.70;10.75;;;30.70;16.60;;;;;;5040344;28;20401;-75
2021/06/28 11:11:46;;;;;;;11.03;10.00;;;30.40;17.30;;;;;;5051218;28;20465;-76
2021/06/28 11:14:18;;;;;;;13.43;11.63;;;30.50;17.80;;;;;;5038644;28;20886;-76
2021/06/28 11:17:08;;;;;;;12.90;10.68;;;30.40;17.90;;;;;;5031923;28;20390;-75
2021/06/28 11:19:49;;;;;;;14.75;11.90;;;30.20;17.60;;;;;;5031937;28;20879;-76
2021/06/28 11:22:33;;;;;;;11.73;10.45;;;30.20;17.90;;;;;;5036800;28;20463;-76
2021/06/28 11:25:07;;;;;;;12.93;10.85;;;30.50;17.30;;;;;;5033788;28;20399;-77
2021/06/28 11:27:41;;;;;;;11.95;10.65;;;30.60;18.00;;;;;;5031453;28;20437;-77
2021/06/28 11:30:13;;;;;;;13.70;10.77;;;30.70;17.20;;;;;;5031501;28;20399;-77
2021/06/28 11:33:03;;;;;;;10.95;9.55;;;30.70;16.70;;;;;;5030863;28;20881;-77
2021/06/28 11:35:46;;;;;;;11.80;10.60;;;30.80;17.10;;;;;;5050465;28;20411;-76
2021/06/28 11:38:17;;;;;;;11.47;9.80;;;30.80;16.20;;;;;;5033682;28;20863;-77
2021/06/28 11:40:49;;;;;;;12.35;10.30;;;30.50;16.70;;;;;;5029535;28;20464;-76
2021/06/28 11:43:37;;;;;;;10.50;9.45;;;30.20;17.30;;;;;;5031198;28;20425;-76
2021/06/28 11:46:04;;;;;;;10.70;9.70;;;30.00;18.40;;;;;;5030887;28;20533;-76
2021/06/28 11:48:49;;;;;;;10.50;9.60;;;29.80;17.90;;;;;;5031164;28;20399;-76
2021/06/28 11:51:17;;;;;;;12.70;10.03;;;29.60;17.90;;;;;;5043248;28;20441;-77
2021/06/28 11:54:00;;;;;;;10.07;9.20;;;29.70;18.70;;;;;;5031372;28;20403;-77
2021/06/28 11:56:35;;;;;;;10.20;9.20;;;29.50;18.10;;;;;;5034044;28;20704;-77
2021/06/28 11:59:00;;;;;;;10.90;9.83;;;29.50;18.00;;;;;;5030033;28;20409;-77
2021/06/28 12:01:33;;;;;;;12.25;9.85;;;29.70;17.60;;;;;;5054255;28;20409;-76
2021/06/28 12:04:00;;;;;;;11.25;9.25;;;29.60;17.80;;;;;;5029859;28;20403;-75
2021/06/28 12:06:32;;;;;;;9.93;9.13;;;29.80;17.10;;;;;;5050381;28;20385;-75
2021/06/28 12:09:07;;;;;;;10.35;9.35;;;29.80;16.80;;;;;;5039973;28;20391;-75
2021/06/28 12:11:33;;;;;;;9.77;8.77;;;30.00;17.80;;;;;;5047785;28;20389;-75
2021/06/28 12:13:59;;;;;;;9.20;8.40;;;30.30;17.30;;;;;;5049554;28;20469;-76
2021/06/28 12:16:27;;;;;;;9.63;8.70;;;30.60;16.60;;;;;;5036141;28;20557;-76
2021/06/28 12:19:05;;;;;;;9.10;8.40;;;30.80;16.30;;;;;;5030817;28;20437;-76
2021/06/28 12:21:32;;;;;;;7.87;7.20;;;31.00;14.30;;;;;;5030578;28;20410;-76
2021/06/28 12:24:07;;;;;;;8.57;7.78;;;31.10;14.00;;;;;;5030200;28;21049;-76
2021/06/28 12:26:33;;;;;;;8.37;7.57;;;31.20;14.60;;;;;;5029193;28;20490;-76
2021/06/28 12:29:36;;;;;;;9.15;7.50;;;31.60;13.90;;;;;;5032889;28;20484;-77
2021/06/28 12:32:13;;;;;;;8.85;7.32;;;31.80;11.90;;;;;;5031198;28;20400;-74
2021/06/28 12:34:44;;;;;;;8.70;7.50;;;31.90;12.50;;;;;;5043190;28;20411;-75
2021/06/28 12:37:12;;;;;;;8.55;7.65;;;31.70;12.10;;;;;;5052301;28;20437;-75